sensor_id;sensor_type;location;lat;lon;timestamp;pressure;altitude;pressure_sealevel;temperature;humidity
4410;BME280;2218;51.408;7.208;2023-05-01T00:00:23;99946.84;;;19.38;40.98
4410;BME280;2218;51.408;7.208;2023-05-01T00:02:52;99934.63;;;19.37;41.00
4410;BME280;2218;51.408;7.208;2023-05-01T00:05:19;99931.03;;;19.38;40.66
4410;BME280;2218;51.408;7.208;2023-05-01T00:07:48;99929.38;;;19.37;40.80
4410;BME280;2218;51.408;7.208;2023-05-01T00:10:15;99931.03;;;19.38;40.90
4410;BME280;2218;51.408;7.208;2023-05-01T00:12:44;99917.13;;;19.36;41.42
4410;BME280;2218;51.408;7.208;2023-05-01T00:15:10;99915.44;;;19.35;40.94
4410;BME280;2218;51.408;7.208;2023-05-01T00:17:37;99915.44;;;19.35;40.81
4410;BME280;2218;51.408;7.208;2023-05-01T00:20:06;99910.19;;;19.35;40.94
4410;BME280;2218;51.408;7.208;2023-05-01T00:22:33;99908.50;;;19.34;40.79
4410;BME280;2218;51.408;7.208;2023-05-01T00:25:01;99904.06;;;19.35;40.76
4410;BME280;2218;51.408;7.208;2023-05-01T00:27:28;99902.28;;;19.35;40.85
4410;BME280;2218;51.408;7.208;2023-05-01T00:29:56;99900.59;;;19.34;40.79
4410;BME280;2218;51.408;7.208;2023-05-01T00:32:23;99896.25;;;19.33;40.88
4410;BME280;2218;51.408;7.208;2023-05-01T00:34:50;99898.88;;;19.33;40.65
4410;BME280;2218;51.408;7.208;2023-05-01T00:37:17;99889.28;;;19.32;40.99
4410;BME280;2218;51.408;7.208;2023-05-01T00:39:44;99892.78;;;19.33;40.88
4410;BME280;2218;51.408;7.208;2023-05-01T00:42:12;99884.88;;;19.33;40.94
4410;BME280;2218;51.408;7.208;2023-05-01T00:44:39;99887.50;;;19.33;40.66
4410;BME280;2218;51.408;7.208;2023-05-01T00:47:06;99884.03;;;19.32;40.80
4410;BME280;2218;51.408;7.208;2023-05-01T00:49:33;99884.03;;;19.32;40.74
4410;BME280;2218;51.408;7.208;2023-05-01T00:52:01;99877.06;;;19.31;40.86
4410;BME280;2218;51.408;7.208;2023-05-01T00:54:28;99878.75;;;19.32;40.66
4410;BME280;2218;51.408;7.208;2023-05-01T00:56:55;99870.13;;;19.30;40.64
4410;BME280;2218;51.408;7.208;2023-05-01T00:59:24;99869.28;;;19.30;40.88
4410;BME280;2218;51.408;7.208;2023-05-01T01:01:51;99870.13;;;19.30;40.56
4410;BME280;2218;51.408;7.208;2023-05-01T01:04:18;99859.56;;;19.30;40.96
4410;BME280;2218;51.408;7.208;2023-05-01T01:06:55;99856.94;;;19.30;40.93
4410;BME280;2218;51.408;7.208;2023-05-01T01:09:37;99856.94;;;19.30;40.84
4410;BME280;2218;51.408;7.208;2023-05-01T01:12:19;99851.66;;;19.30;40.91
4410;BME280;2218;51.408;7.208;2023-05-01T01:14:57;99836.81;;;19.29;40.64
4410;BME280;2218;51.408;7.208;2023-05-01T01:17:31;99841.22;;;19.29;40.77
4410;BME280;2218;51.408;7.208;2023-05-01T01:20:36;99842.09;;;19.29;40.59
4410;BME280;2218;51.408;7.208;2023-05-01T01:23:36;99844.72;;;19.29;40.82
4410;BME280;2218;51.408;7.208;2023-05-01T01:26:26;99842.09;;;19.29;40.80
4410;BME280;2218;51.408;7.208;2023-05-01T01:29:43;99832.47;;;19.28;40.75
4410;BME280;2218;51.408;7.208;2023-05-01T01:32:48;99828.16;;;19.27;40.88
4410;BME280;2218;51.408;7.208;2023-05-01T01:35:25;99834.25;;;19.28;41.00
4410;BME280;2218;51.408;7.208;2023-05-01T01:38:00;99823.84;;;19.26;40.89
4410;BME280;2218;51.408;7.208;2023-05-01T01:40:37;99833.41;;;19.27;40.91
4410;BME280;2218;51.408;7.208;2023-05-01T01:43:09;99821.19;;;19.26;40.90
4410;BME280;2218;51.408;7.208;2023-05-01T01:45:42;99815.94;;;19.26;40.69
4410;BME280;2218;51.408;7.208;2023-05-01T01:48:16;99810.66;;;19.26;40.75
4410;BME280;2218;51.408;7.208;2023-05-01T01:50:46;99811.63;;;19.25;40.90
4410;BME280;2218;51.408;7.208;2023-05-01T01:53:17;99812.44;;;19.26;40.71
4410;BME280;2218;51.408;7.208;2023-05-01T01:55:46;99799.28;;;19.26;40.62
4410;BME280;2218;51.408;7.208;2023-05-01T01:58:15;99798.44;;;19.25;40.71
4410;BME280;2218;51.408;7.208;2023-05-01T02:00:45;99794.09;;;19.24;40.75
4410;BME280;2218;51.408;7.208;2023-05-01T02:03:13;99797.59;;;19.25;40.84
4410;BME280;2218;51.408;7.208;2023-05-01T02:05:43;99797.59;;;19.25;40.98
4410;BME280;2218;51.408;7.208;2023-05-01T02:08:15;99786.19;;;19.24;41.01
4410;BME280;2218;51.408;7.208;2023-05-01T02:10:44;99786.19;;;19.24;41.07
4410;BME280;2218;51.408;7.208;2023-05-01T02:13:14;99780.91;;;19.24;41.00
4410;BME280;2218;51.408;7.208;2023-05-01T02:15:43;99781.88;;;19.23;41.03
4410;BME280;2218;51.408;7.208;2023-05-01T02:18:11;99791.47;;;19.24;40.82
4410;BME280;2218;51.408;7.208;2023-05-01T02:20:41;99774.81;;;19.24;40.95
4410;BME280;2218;51.408;7.208;2023-05-01T02:23:09;99770.59;;;19.21;40.69
4410;BME280;2218;51.408;7.208;2023-05-01T02:25:38;99773.13;;;19.23;40.77
4410;BME280;2218;51.408;7.208;2023-05-01T02:28:11;99768.69;;;19.23;40.73
4410;BME280;2218;51.408;7.208;2023-05-01T02:30:39;99762.59;;;19.23;40.75
4410;BME280;2218;51.408;7.208;2023-05-01T02:33:07;99763.44;;;19.23;40.80
4410;BME280;2218;51.408;7.208;2023-05-01T02:35:38;99759.13;;;19.22;40.79
4410;BME280;2218;51.408;7.208;2023-05-01T02:38:06;99761.75;;;19.22;40.67
4410;BME280;2218;51.408;7.208;2023-05-01T02:40:35;99760.06;;;19.21;40.77
4410;BME280;2218;51.408;7.208;2023-05-01T02:43:09;99752.16;;;19.21;41.03
4410;BME280;2218;51.408;7.208;2023-05-01T02:45:39;99749.53;;;19.21;40.73
4410;BME280;2218;51.408;7.208;2023-05-01T02:48:12;99751.22;;;19.22;40.82
4410;BME280;2218;51.408;7.208;2023-05-01T02:50:43;99746.91;;;19.21;41.25
4410;BME280;2218;51.408;7.208;2023-05-01T02:53:12;99739.94;;;19.20;40.78
4410;BME280;2218;51.408;7.208;2023-05-01T02:55:54;99745.09;;;19.22;41.12
4410;BME280;2218;51.408;7.208;2023-05-01T02:58:22;99734.56;;;19.22;40.90
4410;BME280;2218;51.408;7.208;2023-05-01T03:00:49;99739.00;;;19.21;40.95
4410;BME280;2218;51.408;7.208;2023-05-01T03:03:17;99730.25;;;19.21;40.93
4410;BME280;2218;51.408;7.208;2023-05-01T03:05:44;99730.25;;;19.21;40.80
4410;BME280;2218;51.408;7.208;2023-05-01T03:08:12;99719.72;;;19.21;40.86
4410;BME280;2218;51.408;7.208;2023-05-01T03:10:39;99722.34;;;19.21;41.13
4410;BME280;2218;51.408;7.208;2023-05-01T03:13:07;99710.97;;;19.20;40.79
4410;BME280;2218;51.408;7.208;2023-05-01T03:15:36;99718.88;;;19.20;41.10
4410;BME280;2218;51.408;7.208;2023-05-01T03:18:03;99706.53;;;19.21;41.25
4410;BME280;2218;51.408;7.208;2023-05-01T03:20:30;99710.84;;;19.22;40.97
4410;BME280;2218;51.408;7.208;2023-05-01T03:22:58;99716.22;;;19.20;40.96
4410;BME280;2218;51.408;7.208;2023-05-01T03:25:25;99710.00;;;19.21;41.01
4410;BME280;2218;51.408;7.208;2023-05-01T03:27:52;99707.38;;;19.21;40.88
4410;BME280;2218;51.408;7.208;2023-05-01T03:30:18;99696.09;;;19.19;40.80
4410;BME280;2218;51.408;7.208;2023-05-01T03:32:47;99697.78;;;19.20;40.82
4410;BME280;2218;51.408;7.208;2023-05-01T03:35:20;99701.25;;;19.21;40.83
4410;BME280;2218;51.408;7.208;2023-05-01T03:37:48;99683.78;;;19.20;40.94
4410;BME280;2218;51.408;7.208;2023-05-01T03:40:35;99696.84;;;19.21;41.02
4410;BME280;2218;51.408;7.208;2023-05-01T03:43:23;99689.88;;;19.20;41.02
4410;BME280;2218;51.408;7.208;2023-05-01T03:45:51;99689.88;;;19.20;40.91
4410;BME280;2218;51.408;7.208;2023-05-01T03:48:20;99682.91;;;19.19;40.84
4410;BME280;2218;51.408;7.208;2023-05-01T03:50:47;99679.34;;;19.20;40.85
4410;BME280;2218;51.408;7.208;2023-05-01T03:53:14;99675.88;;;19.20;40.83
4410;BME280;2218;51.408;7.208;2023-05-01T03:55:42;99676.72;;;19.20;41.11
4410;BME280;2218;51.408;7.208;2023-05-01T03:58:10;99679.34;;;19.20;41.05
4410;BME280;2218;51.408;7.208;2023-05-01T04:00:38;99677.63;;;19.19;41.06
4410;BME280;2218;51.408;7.208;2023-05-01T04:03:06;99672.38;;;19.19;41.10
4410;BME280;2218;51.408;7.208;2023-05-01T04:05:37;99676.72;;;19.20;40.93
4410;BME280;2218;51.408;7.208;2023-05-01T04:08:05;99676.72;;;19.20;40.93
4410;BME280;2218;51.408;7.208;2023-05-01T04:10:32;99672.38;;;19.19;40.91
4410;BME280;2218;51.408;7.208;2023-05-01T04:13:03;99674.09;;;19.20;41.07
4410;BME280;2218;51.408;7.208;2023-05-01T04:15:31;99674.09;;;19.20;40.97
4410;BME280;2218;51.408;7.208;2023-05-01T04:17:58;99674.09;;;19.20;41.08
4410;BME280;2218;51.408;7.208;2023-05-01T04:20:26;99664.47;;;19.19;41.04
4410;BME280;2218;51.408;7.208;2023-05-01T04:22:54;99668.91;;;19.19;40.87
4410;BME280;2218;51.408;7.208;2023-05-01T04:25:22;99669.66;;;19.21;40.87
4410;BME280;2218;51.408;7.208;2023-05-01T04:27:53;99667.97;;;19.20;40.86
4410;BME280;2218;51.408;7.208;2023-05-01T04:30:20;99668.81;;;19.20;41.05
4410;BME280;2218;51.408;7.208;2023-05-01T04:32:47;99661.75;;;19.21;41.19
4410;BME280;2218;51.408;7.208;2023-05-01T04:35:13;99659.13;;;19.21;41.02
4410;BME280;2218;51.408;7.208;2023-05-01T04:37:43;99659.13;;;19.21;40.86
4410;BME280;2218;51.408;7.208;2023-05-01T04:40:12;99665.22;;;19.21;40.92
4410;BME280;2218;51.408;7.208;2023-05-01T04:42:40;99657.31;;;19.21;40.64
4410;BME280;2218;51.408;7.208;2023-05-01T04:45:11;99659.00;;;19.22;41.10
4410;BME280;2218;51.408;7.208;2023-05-01T04:47:39;99656.38;;;19.22;40.88
4410;BME280;2218;51.408;7.208;2023-05-01T04:50:07;99660.69;;;19.23;40.86
4410;BME280;2218;51.408;7.208;2023-05-01T04:52:34;99661.63;;;19.22;40.92
4410;BME280;2218;51.408;7.208;2023-05-01T04:55:03;99655.53;;;19.22;40.86
4410;BME280;2218;51.408;7.208;2023-05-01T04:57:35;99657.19;;;19.23;40.93
4410;BME280;2218;51.408;7.208;2023-05-01T05:00:07;99655.41;;;19.23;40.97
4410;BME280;2218;51.408;7.208;2023-05-01T05:02:42;99657.19;;;19.23;40.60
4410;BME280;2218;51.408;7.208;2023-05-01T05:05:12;99657.19;;;19.23;40.89
4410;BME280;2218;51.408;7.208;2023-05-01T05:07:39;99652.78;;;19.23;40.81
4410;BME280;2218;51.408;7.208;2023-05-01T05:10:29;99657.09;;;19.24;41.26
4410;BME280;2218;51.408;7.208;2023-05-01T05:13:21;99658.03;;;19.23;40.86
4410;BME280;2218;51.408;7.208;2023-05-01T05:15:55;99657.97;;;19.25;41.09
4410;BME280;2218;51.408;7.208;2023-05-01T05:18:23;99660.59;;;19.25;40.95
4410;BME280;2218;51.408;7.208;2023-05-01T05:20:50;99655.31;;;19.25;40.78
4410;BME280;2218;51.408;7.208;2023-05-01T05:23:18;99655.31;;;19.25;41.07
4410;BME280;2218;51.408;7.208;2023-05-01T05:25:46;99658.78;;;19.25;41.02
4410;BME280;2218;51.408;7.208;2023-05-01T05:28:12;99657.84;;;19.26;41.11
4410;BME280;2218;51.408;7.208;2023-05-01T05:30:42;99655.22;;;19.26;40.82
4410;BME280;2218;51.408;7.208;2023-05-01T05:33:12;99652.44;;;19.28;40.80
4410;BME280;2218;51.408;7.208;2023-05-01T05:35:39;99662.91;;;19.29;41.13
4410;BME280;2218;51.408;7.208;2023-05-01T05:38:07;99659.31;;;19.30;41.00
4410;BME280;2218;51.408;7.208;2023-05-01T05:40:36;99658.47;;;19.30;41.01
4410;BME280;2218;51.408;7.208;2023-05-01T05:43:03;99656.69;;;19.30;41.19
4410;BME280;2218;51.408;7.208;2023-05-01T05:45:32;99655.72;;;19.31;40.83
4410;BME280;2218;51.408;7.208;2023-05-01T05:48:01;99651.28;;;19.32;40.90
4410;BME280;2218;51.408;7.208;2023-05-01T05:50:31;99652.13;;;19.32;41.18
4410;BME280;2218;51.408;7.208;2023-05-01T05:52:58;99652.13;;;19.32;41.12
4410;BME280;2218;51.408;7.208;2023-05-01T05:55:25;99653.81;;;19.33;41.06
4410;BME280;2218;51.408;7.208;2023-05-01T05:58:01;99657.19;;;19.35;41.11
4410;BME280;2218;51.408;7.208;2023-05-01T06:00:28;99655.28;;;19.37;40.87
4410;BME280;2218;51.408;7.208;2023-05-01T06:02:57;99656.13;;;19.38;40.91
4410;BME280;2218;51.408;7.208;2023-05-01T06:05:29;99658.69;;;19.40;41.18
4410;BME280;2218;51.408;7.208;2023-05-01T06:07:57;99653.41;;;19.40;41.02
4410;BME280;2218;51.408;7.208;2023-05-01T06:10:23;99649.91;;;19.39;41.06
4410;BME280;2218;51.408;7.208;2023-05-01T06:12:50;99653.41;;;19.40;40.98
4410;BME280;2218;51.408;7.208;2023-05-01T06:15:17;99656.75;;;19.42;40.90
4410;BME280;2218;51.408;7.208;2023-05-01T06:17:51;99653.16;;;19.43;41.15
4410;BME280;2218;51.408;7.208;2023-05-01T06:20:18;99659.28;;;19.43;41.03
4410;BME280;2218;51.408;7.208;2023-05-01T06:22:46;99652.97;;;19.46;40.94
4410;BME280;2218;51.408;7.208;2023-05-01T06:25:17;99653.81;;;19.46;40.97
4410;BME280;2218;51.408;7.208;2023-05-01T06:27:43;99652.00;;;19.47;40.93
4410;BME280;2218;51.408;7.208;2023-05-01T06:30:11;99652.84;;;19.47;41.05
4410;BME280;2218;51.408;7.208;2023-05-01T06:32:40;99654.63;;;19.47;41.20
4410;BME280;2218;51.408;7.208;2023-05-01T06:35:09;99650.22;;;19.47;40.96
4410;BME280;2218;51.408;7.208;2023-05-01T06:37:36;99657.16;;;19.48;40.95
4410;BME280;2218;51.408;7.208;2023-05-01T06:40:08;99648.31;;;19.49;41.24
4410;BME280;2218;51.408;7.208;2023-05-01T06:42:37;99652.72;;;19.49;41.11
4410;BME280;2218;51.408;7.208;2023-05-01T06:45:06;99649.16;;;19.50;41.01
4410;BME280;2218;51.408;7.208;2023-05-01T06:47:33;99641.13;;;19.51;40.99
4410;BME280;2218;51.408;7.208;2023-05-01T06:50:00;99636.69;;;19.52;41.05
4410;BME280;2218;51.408;7.208;2023-05-01T06:52:27;99647.25;;;19.52;41.24
4410;BME280;2218;51.408;7.208;2023-05-01T06:54:54;99643.66;;;19.53;40.90
4410;BME280;2218;51.408;7.208;2023-05-01T06:57:22;99641.84;;;19.53;40.98
4410;BME280;2218;51.408;7.208;2023-05-01T06:59:49;99640.06;;;19.54;40.84
4410;BME280;2218;51.408;7.208;2023-05-01T07:02:16;99644.41;;;19.55;40.97
4410;BME280;2218;51.408;7.208;2023-05-01T07:04:43;99645.25;;;19.55;41.06
4410;BME280;2218;51.408;7.208;2023-05-01T07:07:10;99644.28;;;19.56;40.94
4410;BME280;2218;51.408;7.208;2023-05-01T07:09:37;99643.44;;;19.56;41.04
4410;BME280;2218;51.408;7.208;2023-05-01T07:12:05;99639.00;;;19.56;41.08
4410;BME280;2218;51.408;7.208;2023-05-01T07:14:33;99632.91;;;19.56;41.08
4410;BME280;2218;51.408;7.208;2023-05-01T07:17:00;99640.81;;;19.56;40.84
4410;BME280;2218;51.408;7.208;2023-05-01T07:19:27;99631.94;;;19.57;40.97
4410;BME280;2218;51.408;7.208;2023-05-01T07:21:54;99637.22;;;19.57;40.95
4410;BME280;2218;51.408;7.208;2023-05-01T07:24:21;99636.25;;;19.58;41.31
4410;BME280;2218;51.408;7.208;2023-05-01T07:26:48;99640.69;;;19.57;41.19
4410;BME280;2218;51.408;7.208;2023-05-01T07:29:16;99648.47;;;19.59;40.87
4410;BME280;2218;51.408;7.208;2023-05-01T07:31:45;99634.47;;;19.58;40.81
4410;BME280;2218;51.408;7.208;2023-05-01T07:34:12;99639.69;;;19.60;41.16
4410;BME280;2218;51.408;7.208;2023-05-01T07:36:41;99637.03;;;19.60;41.05
4410;BME280;2218;51.408;7.208;2023-05-01T07:39:08;99631.78;;;19.60;40.91
4410;BME280;2218;51.408;7.208;2023-05-01T07:41:34;99633.44;;;19.61;41.13
4410;BME280;2218;51.408;7.208;2023-05-01T07:44:02;99630.81;;;19.61;41.19
4410;BME280;2218;51.408;7.208;2023-05-01T07:46:28;99643.03;;;19.62;40.92
4410;BME280;2218;51.408;7.208;2023-05-01T07:48:57;99633.31;;;19.62;40.82
4410;BME280;2218;51.408;7.208;2023-05-01T07:51:24;99633.31;;;19.62;41.00
4410;BME280;2218;51.408;7.208;2023-05-01T07:53:51;99639.44;;;19.63;41.05
4410;BME280;2218;51.408;7.208;2023-05-01T07:56:18;99635.00;;;19.63;40.94
4410;BME280;2218;51.408;7.208;2023-05-01T07:58:46;99634.91;;;19.65;40.96
4410;BME280;2218;51.408;7.208;2023-05-01T08:01:12;99638.38;;;19.66;41.02
4410;BME280;2218;51.408;7.208;2023-05-01T08:03:39;99630.34;;;19.67;40.91
4410;BME280;2218;51.408;7.208;2023-05-01T08:06:08;99633.00;;;19.67;40.91
4410;BME280;2218;51.408;7.208;2023-05-01T08:08:35;99632.03;;;19.68;40.80
4410;BME280;2218;51.408;7.208;2023-05-01T08:11:02;99631.19;;;19.68;40.82
4410;BME280;2218;51.408;7.208;2023-05-01T08:13:29;99635.44;;;19.70;40.87
4410;BME280;2218;51.408;7.208;2023-05-01T08:16:00;99627.50;;;19.70;40.90
4410;BME280;2218;51.408;7.208;2023-05-01T08:18:27;99624.88;;;19.70;40.92
4410;BME280;2218;51.408;7.208;2023-05-01T08:20:54;99639.75;;;19.71;40.79
4410;BME280;2218;51.408;7.208;2023-05-01T08:23:22;99627.41;;;19.72;40.86
4410;BME280;2218;51.408;7.208;2023-05-01T08:25:51;99633.50;;;19.72;40.89
4410;BME280;2218;51.408;7.208;2023-05-01T08:28:18;99628.22;;;19.72;40.83
4410;BME280;2218;51.408;7.208;2023-05-01T08:30:46;99625.59;;;19.72;40.88
4410;BME280;2218;51.408;7.208;2023-05-01T08:33:14;99626.44;;;19.73;40.88
4410;BME280;2218;51.408;7.208;2023-05-01T08:35:41;99628.13;;;19.74;40.82
4410;BME280;2218;51.408;7.208;2023-05-01T08:38:09;99623.72;;;19.74;40.79
4410;BME280;2218;51.408;7.208;2023-05-01T08:40:40;99627.06;;;19.76;40.83
4410;BME280;2218;51.408;7.208;2023-05-01T08:43:09;99629.69;;;19.76;40.79
4410;BME280;2218;51.408;7.208;2023-05-01T08:45:38;99624.44;;;19.76;40.68
4410;BME280;2218;51.408;7.208;2023-05-01T08:48:06;99634.00;;;19.77;40.82
4410;BME280;2218;51.408;7.208;2023-05-01T08:50:33;99623.47;;;19.77;40.88
4410;BME280;2218;51.408;7.208;2023-05-01T08:53:02;99621.66;;;19.78;40.78
4410;BME280;2218;51.408;7.208;2023-05-01T08:55:31;99622.50;;;19.78;41.03
4410;BME280;2218;51.408;7.208;2023-05-01T08:58:01;99622.50;;;19.78;40.58
4410;BME280;2218;51.408;7.208;2023-05-01T09:00:30;99619.88;;;19.78;40.87
4410;BME280;2218;51.408;7.208;2023-05-01T09:03:00;99620.63;;;19.80;40.63
4410;BME280;2218;51.408;7.208;2023-05-01T09:05:32;99625.06;;;19.80;40.55
4410;BME280;2218;51.408;7.208;2023-05-01T09:08:00;99619.78;;;19.80;41.11
4410;BME280;2218;51.408;7.208;2023-05-01T09:10:28;99614.38;;;19.81;40.73
4410;BME280;2218;51.408;7.208;2023-05-01T09:13:02;99622.28;;;19.81;40.55
4410;BME280;2218;51.408;7.208;2023-05-01T09:15:32;99617.03;;;19.81;40.86
4410;BME280;2218;51.408;7.208;2023-05-01T09:18:00;99609.00;;;19.83;40.64
4410;BME280;2218;51.408;7.208;2023-05-01T09:20:27;99614.25;;;19.83;40.63
4410;BME280;2218;51.408;7.208;2023-05-01T09:22:55;99610.66;;;19.84;40.63
4410;BME280;2218;51.408;7.208;2023-05-01T09:25:23;99615.84;;;19.85;40.59
4410;BME280;2218;51.408;7.208;2023-05-01T09:27:50;99614.06;;;19.86;40.61
4410;BME280;2218;51.408;7.208;2023-05-01T09:30:34;99610.44;;;19.87;40.63
4410;BME280;2218;51.408;7.208;2023-05-01T09:33:07;99615.72;;;19.87;40.62
4410;BME280;2218;51.408;7.208;2023-05-01T09:35:51;99611.28;;;19.87;40.63
4410;BME280;2218;51.408;7.208;2023-05-01T09:38:23;99611.28;;;19.87;40.53
4410;BME280;2218;51.408;7.208;2023-05-01T09:40:52;99606.00;;;19.87;40.67
4410;BME280;2218;51.408;7.208;2023-05-01T09:43:25;99609.63;;;19.86;40.60
4410;BME280;2218;51.408;7.208;2023-05-01T09:46:01;99606.00;;;19.87;40.52
4410;BME280;2218;51.408;7.208;2023-05-01T09:48:30;99606.00;;;19.87;40.51
4410;BME280;2218;51.408;7.208;2023-05-01T09:50:57;99602.41;;;19.88;40.61
4410;BME280;2218;51.408;7.208;2023-05-01T09:53:36;99596.31;;;19.88;40.63
4410;BME280;2218;51.408;7.208;2023-05-01T09:56:04;99598.84;;;19.90;40.64
4410;BME280;2218;51.408;7.208;2023-05-01T09:58:32;99601.50;;;19.90;40.72
4410;BME280;2218;51.408;7.208;2023-05-01T10:01:00;99603.28;;;19.89;40.45
4410;BME280;2218;51.408;7.208;2023-05-01T10:03:27;99597.06;;;19.90;40.57
4410;BME280;2218;51.408;7.208;2023-05-01T10:05:54;99594.50;;;19.88;40.60
4410;BME280;2218;51.408;7.208;2023-05-01T10:08:25;99593.56;;;19.90;40.62
4410;BME280;2218;51.408;7.208;2023-05-01T10:11:02;99599.69;;;19.90;40.69
4410;BME280;2218;51.408;7.208;2023-05-01T10:13:30;99597.88;;;19.91;40.46
4410;BME280;2218;51.408;7.208;2023-05-01T10:15:57;99604.13;;;19.90;40.42
4410;BME280;2218;51.408;7.208;2023-05-01T10:18:28;99595.25;;;19.91;40.59
4410;BME280;2218;51.408;7.208;2023-05-01T10:20:56;99594.41;;;19.90;40.73
4410;BME280;2218;51.408;7.208;2023-05-01T10:23:24;99595.25;;;19.91;40.52
4410;BME280;2218;51.408;7.208;2023-05-01T10:25:52;99595.25;;;19.91;40.65
4410;BME280;2218;51.408;7.208;2023-05-01T10:28:20;99592.50;;;19.92;40.63
4410;BME280;2218;51.408;7.208;2023-05-01T10:30:48;99593.34;;;19.93;40.62
4410;BME280;2218;51.408;7.208;2023-05-01T10:33:15;99595.97;;;19.93;40.03
4410;BME280;2218;51.408;7.208;2023-05-01T10:35:54;99597.75;;;19.92;40.87
4410;BME280;2218;51.408;7.208;2023-05-01T10:38:25;99594.28;;;19.92;40.65
4410;BME280;2218;51.408;7.208;2023-05-01T10:40:56;99590.69;;;19.93;40.54
4410;BME280;2218;51.408;7.208;2023-05-01T10:43:26;99593.34;;;19.93;40.28
4410;BME280;2218;51.408;7.208;2023-05-01T10:46:26;99594.16;;;19.93;40.60
4410;BME280;2218;51.408;7.208;2023-05-01T10:48:57;99589.72;;;19.94;40.58
4410;BME280;2218;51.408;7.208;2023-05-01T10:51:26;99585.31;;;19.94;40.43
4410;BME280;2218;51.408;7.208;2023-05-01T10:54:22;99578.25;;;19.95;40.38
4410;BME280;2218;51.408;7.208;2023-05-01T10:56:50;99578.25;;;19.95;40.43
4410;BME280;2218;51.408;7.208;2023-05-01T10:59:18;99574.66;;;19.96;40.57
4410;BME280;2218;51.408;7.208;2023-05-01T11:01:46;99571.06;;;19.97;40.17
4410;BME280;2218;51.408;7.208;2023-05-01T11:04:48;99571.91;;;19.97;40.23
4410;BME280;2218;51.408;7.208;2023-05-01T11:07:21;99566.75;;;19.96;40.46
4410;BME280;2218;51.408;7.208;2023-05-01T11:09:50;99572.00;;;19.96;40.34
4410;BME280;2218;51.408;7.208;2023-05-01T11:12:49;99565.06;;;19.95;40.64
4410;BME280;2218;51.408;7.208;2023-05-01T11:15:28;99561.47;;;19.96;40.41
4410;BME280;2218;51.408;7.208;2023-05-01T11:17:57;99567.56;;;19.96;40.54
4410;BME280;2218;51.408;7.208;2023-05-01T11:20:52;99572.84;;;19.96;40.43
4410;BME280;2218;51.408;7.208;2023-05-01T11:23:22;99564.09;;;19.96;40.28
4410;BME280;2218;51.408;7.208;2023-05-01T11:26:01;99561.47;;;19.96;40.25
4410;BME280;2218;51.408;7.208;2023-05-01T11:28:30;99557.03;;;19.96;40.46
4410;BME280;2218;51.408;7.208;2023-05-01T11:30:58;99557.03;;;19.96;40.39
4410;BME280;2218;51.408;7.208;2023-05-01T11:33:26;99557.88;;;19.97;40.32
4410;BME280;2218;51.408;7.208;2023-05-01T11:36:00;99557.88;;;19.97;40.32
4410;BME280;2218;51.408;7.208;2023-05-01T11:38:29;99561.47;;;19.96;40.30
4410;BME280;2218;51.408;7.208;2023-05-01T11:41:03;99557.88;;;19.97;40.38
4410;BME280;2218;51.408;7.208;2023-05-01T11:43:30;99554.25;;;19.98;40.45
4410;BME280;2218;51.408;7.208;2023-05-01T11:45:57;99551.63;;;19.98;40.22
4410;BME280;2218;51.408;7.208;2023-05-01T11:48:31;99556.91;;;19.98;40.40
4410;BME280;2218;51.408;7.208;2023-05-01T11:50:58;99555.94;;;19.99;40.50
4410;BME280;2218;51.408;7.208;2023-05-01T11:53:25;99550.66;;;19.99;40.39
4410;BME280;2218;51.408;7.208;2023-05-01T11:55:53;99550.66;;;19.99;40.15
4410;BME280;2218;51.408;7.208;2023-05-01T11:58:30;99545.38;;;19.99;40.15
4410;BME280;2218;51.408;7.208;2023-05-01T12:00:58;99548.03;;;19.99;40.28
4410;BME280;2218;51.408;7.208;2023-05-01T12:03:25;99548.91;;;19.99;40.31
4410;BME280;2218;51.408;7.208;2023-05-01T12:05:52;99541.81;;;20.00;40.33
4410;BME280;2218;51.408;7.208;2023-05-01T12:08:21;99544.56;;;19.98;40.61
4410;BME280;2218;51.408;7.208;2023-05-01T12:10:50;99545.38;;;19.99;40.20
4410;BME280;2218;51.408;7.208;2023-05-01T12:13:19;99542.75;;;19.99;40.18
4410;BME280;2218;51.408;7.208;2023-05-01T12:15:48;99547.09;;;20.00;40.39
4410;BME280;2218;51.408;7.208;2023-05-01T12:18:17;99539.28;;;19.98;40.16
4410;BME280;2218;51.408;7.208;2023-05-01T12:20:48;99549.00;;;19.98;40.25
4410;BME280;2218;51.408;7.208;2023-05-01T12:23:19;99543.72;;;19.98;40.23
4410;BME280;2218;51.408;7.208;2023-05-01T12:25:46;99535.81;;;19.98;40.30
4410;BME280;2218;51.408;7.208;2023-05-01T12:28:14;99546.34;;;19.98;40.06
4410;BME280;2218;51.408;7.208;2023-05-01T12:30:46;99538.44;;;19.98;40.23
4410;BME280;2218;51.408;7.208;2023-05-01T12:33:15;99533.16;;;19.98;39.97
4410;BME280;2218;51.408;7.208;2023-05-01T12:35:45;99532.19;;;19.99;40.26
4410;BME280;2218;51.408;7.208;2023-05-01T12:38:14;99540.13;;;19.99;39.94
4410;BME280;2218;51.408;7.208;2023-05-01T12:40:53;99538.44;;;19.98;40.02
4410;BME280;2218;51.408;7.208;2023-05-01T12:43:21;99541.06;;;19.98;40.15
4410;BME280;2218;51.408;7.208;2023-05-01T12:45:52;99536.63;;;19.98;40.24
4410;BME280;2218;51.408;7.208;2023-05-01T12:48:20;99535.81;;;19.98;40.12
4410;BME280;2218;51.408;7.208;2023-05-01T12:50:47;99530.53;;;19.98;40.07
4410;BME280;2218;51.408;7.208;2023-05-01T12:53:19;99533.16;;;19.98;39.80
4410;BME280;2218;51.408;7.208;2023-05-01T12:55:49;99532.31;;;19.97;39.97
4410;BME280;2218;51.408;7.208;2023-05-01T12:58:17;99534.00;;;19.98;40.04
4410;BME280;2218;51.408;7.208;2023-05-01T13:00:45;99532.19;;;19.99;39.97
4410;BME280;2218;51.408;7.208;2023-05-01T13:03:19;99522.63;;;19.98;39.98
4410;BME280;2218;51.408;7.208;2023-05-01T13:05:53;99523.44;;;19.98;39.97
4410;BME280;2218;51.408;7.208;2023-05-01T13:08:32;99519.88;;;19.99;39.78
4410;BME280;2218;51.408;7.208;2023-05-01T13:11:01;99526.00;;;20.00;39.94
4410;BME280;2218;51.408;7.208;2023-05-01T13:13:35;99519.00;;;19.99;39.71
4410;BME280;2218;51.408;7.208;2023-05-01T13:16:08;99519.00;;;19.99;39.89
4410;BME280;2218;51.408;7.208;2023-05-01T13:18:45;99520.72;;;20.00;39.85
4410;BME280;2218;51.408;7.208;2023-05-01T13:21:25;99518.91;;;20.00;39.87
4410;BME280;2218;51.408;7.208;2023-05-01T13:23:53;99518.91;;;20.00;39.96
4410;BME280;2218;51.408;7.208;2023-05-01T13:26:26;99513.66;;;20.00;40.00
4410;BME280;2218;51.408;7.208;2023-05-01T13:28:54;99518.09;;;20.00;39.75
4410;BME280;2218;51.408;7.208;2023-05-01T13:31:21;99521.56;;;20.00;39.65
4410;BME280;2218;51.408;7.208;2023-05-01T13:33:51;99515.44;;;20.00;40.08
4410;BME280;2218;51.408;7.208;2023-05-01T13:36:20;99516.28;;;20.00;39.79
4410;BME280;2218;51.408;7.208;2023-05-01T13:38:52;99518.91;;;20.00;39.78